Time;durP1;ratioP1;P1;durP2;ratioP2;P2;SDS_P1;SDS_P2;PMS_P1;PMS_P2;Temp;Humidity;BMP_temperature;BMP_pressure;BME280_temperature;BME280_humidity;BME280_pressure;Samples;Min_cycle;Max_cycle;Signal;HPM_P1;HPM_P2
2023/06/15 00:00:44;;;;;;;4.22;2.42;;;20.20;50.20;;;;;;5025881;28;20052;-75
2023/06/15 00:03:10;;;;;;;8.35;2.90;;;20.10;49.90;;;;;;5029539;28;20060;-75
2023/06/15 00:05:36;;;;;;;8.68;3.35;;;20.10;50.10;;;;;;5028852;28;20041;-75
2023/06/15 00:08:02;;;;;;;7.35;2.90;;;20.10;49.70;;;;;;5022720;28;20505;-75
2023/06/15 00:10:28;;;;;;;4.85;2.67;;;20.10;50.50;;;;;;5028128;28;20029;-75
2023/06/15 00:12:53;;;;;;;5.50;2.80;;;20.00;49.90;;;;;;5039863;28;20044;-75
2023/06/15 00:15:19;;;;;;;5.95;3.20;;;20.00;50.70;;;;;;5028678;28;20465;-74
2023/06/15 00:17:46;;;;;;;5.43;2.55;;;20.00;50.50;;;;;;5027059;28;20045;-74
2023/06/15 00:20:12;;;;;;;4.85;2.90;;;19.90;50.90;;;;;;5030219;28;20013;-75
2023/06/15 00:22:41;;;;;;;5.50;2.80;;;19.90;50.90;;;;;;5018854;28;20425;-74
2023/06/15 00:25:08;;;;;;;4.85;2.80;;;19.80;51.30;;;;;;5029014;28;20040;-74
2023/06/15 00:27:37;;;;;;;5.63;2.67;;;19.80;51.60;;;;;;5021532;28;20668;-73
2023/06/15 00:30:04;;;;;;;7.00;3.00;;;19.70;51.70;;;;;;5039670;28;20025;-74
2023/06/15 00:32:30;;;;;;;6.13;2.80;;;19.80;51.70;;;;;;5029166;28;20034;-74
2023/06/15 00:34:55;;;;;;;5.18;2.65;;;19.70;51.70;;;;;;5036423;28;20037;-74
2023/06/15 00:37:21;;;;;;;4.85;2.78;;;19.70;51.60;;;;;;5030655;28;20414;-74
2023/06/15 00:39:47;;;;;;;7.60;3.25;;;19.70;51.80;;;;;;5039678;28;20566;-74
2023/06/15 00:42:12;;;;;;;6.18;2.85;;;19.70;51.90;;;;;;5032916;28;20493;-73
2023/06/15 00:44:38;;;;;;;5.22;2.72;;;19.60;52.00;;;;;;5028011;28;20033;-73
2023/06/15 00:47:04;;;;;;;6.03;3.20;;;19.60;52.00;;;;;;5028992;28;20045;-74
2023/06/15 00:49:32;;;;;;;5.97;3.00;;;19.60;52.30;;;;;;5026048;28;20088;-73
2023/06/15 00:51:58;;;;;;;5.72;2.97;;;19.50;52.30;;;;;;5031161;28;20095;-74
2023/06/15 00:54:24;;;;;;;7.07;3.60;;;19.40;52.30;;;;;;5022354;28;20048;-74
2023/06/15 00:56:52;;;;;;;9.65;3.38;;;19.30;52.40;;;;;;5032212;28;20397;-73
2023/06/15 00:59:19;;;;;;;7.15;3.80;;;19.10;52.70;;;;;;5026554;28;20036;-73
2023/06/15 01:01:47;;;;;;;8.70;3.90;;;19.00;53.30;;;;;;5026039;28;20565;-73
2023/06/15 01:04:13;;;;;;;6.47;3.80;;;18.80;53.60;;;;;;5036822;28;20033;-73
2023/06/15 01:06:51;;;;;;;9.45;3.80;;;18.80;53.90;;;;;;5024609;28;20351;-75
2023/06/15 01:09:19;;;;;;;6.57;3.58;;;18.70;54.10;;;;;;5033571;28;20036;-73
2023/06/15 01:11:46;;;;;;;7.50;3.70;;;18.70;54.30;;;;;;5034948;28;20048;-73
2023/06/15 01:14:12;;;;;;;9.23;4.10;;;18.60;54.60;;;;;;5026089;28;20385;-73
2023/06/15 01:16:43;;;;;;;9.10;4.28;;;18.60;54.60;;;;;;5023608;28;20049;-73
2023/06/15 01:19:29;;;;;;;6.60;3.45;;;18.60;54.90;;;;;;5039066;28;20622;-73
2023/06/15 01:21:59;;;;;;;10.65;4.28;;;18.60;55.00;;;;;;5037249;28;20048;-73
2023/06/15 01:24:31;;;;;;;7.82;4.47;;;18.50;55.30;;;;;;5029636;28;20335;-73
2023/06/15 01:26:58;;;;;;;8.45;4.18;;;18.50;55.40;;;;;;5025717;28;20038;-73
2023/06/15 01:29:26;;;;;;;8.43;3.80;;;18.50;55.40;;;;;;5020448;28;20022;-73
2023/06/15 01:31:52;;;;;;;7.30;4.10;;;18.40;55.50;;;;;;5039887;28;20061;-75
2023/06/15 01:34:18;;;;;;;7.00;4.05;;;18.50;55.60;;;;;;5025449;28;20491;-73
2023/06/15 01:36:44;;;;;;;9.02;3.97;;;18.40;55.70;;;;;;5023195;28;20032;-73
2023/06/15 01:39:10;;;;;;;11.93;4.20;;;18.40;55.80;;;;;;5030205;28;20112;-73
2023/06/15 01:41:37;;;;;;;7.07;4.10;;;18.40;55.80;;;;;;5038893;28;20413;-73
2023/06/15 01:44:04;;;;;;;10.48;4.30;;;18.40;55.90;;;;;;5026016;28;20030;-73
2023/06/15 01:46:32;;;;;;;11.57;4.75;;;18.30;56.30;;;;;;5042946;28;20090;-73
2023/06/15 01:48:58;;;;;;;8.52;4.78;;;18.30;56.30;;;;;;5049228;28;20108;-74
2023/06/15 01:51:25;;;;;;;8.00;4.40;;;18.20;56.40;;;;;;5045934;28;20120;-73
2023/06/15 01:53:50;;;;;;;9.30;4.55;;;18.20;56.70;;;;;;5038088;28;20477;-73
2023/06/15 01:56:16;;;;;;;8.57;4.25;;;18.20;56.80;;;;;;5039694;28;20039;-73
2023/06/15 01:58:42;;;;;;;10.32;4.55;;;18.20;56.80;;;;;;5038731;28;20035;-73
2023/06/15 02:01:08;;;;;;;8.73;4.60;;;18.20;56.80;;;;;;5033338;28;20037;-73
2023/06/15 02:03:33;;;;;;;8.70;5.30;;;18.10;56.90;;;;;;5027547;28;20025;-73
2023/06/15 02:05:59;;;;;;;8.98;4.38;;;18.10;57.20;;;;;;5036268;28;20099;-73
2023/06/15 02:08:25;;;;;;;8.63;4.82;;;18.10;57.20;;;;;;5034727;28;20036;-73
2023/06/15 02:10:50;;;;;;;6.93;4.20;;;18.10;57.20;;;;;;5024193;28;20036;-73
2023/06/15 02:13:17;;;;;;;9.07;4.10;;;18.10;57.50;;;;;;5032328;28;20402;-73
2023/06/15 02:15:43;;;;;;;8.93;5.28;;;18.10;57.50;;;;;;5022358;28;20026;-73
2023/06/15 02:18:13;;;;;;;9.70;4.80;;;18.10;57.30;;;;;;5040683;28;20508;-73
2023/06/15 02:20:42;;;;;;;8.40;4.10;;;18.10;57.50;;;;;;5029221;28;20026;-73
2023/06/15 02:23:09;;;;;;;8.20;4.50;;;18.00;57.60;;;;;;5015319;28;20038;-73
2023/06/15 02:25:35;;;;;;;7.68;4.13;;;18.10;57.60;;;;;;5032809;28;20449;-73
2023/06/15 02:28:00;;;;;;;7.10;4.70;;;18.10;57.80;;;;;;5036667;28;20037;-74
2023/06/15 02:30:26;;;;;;;10.40;5.38;;;18.10;57.60;;;;;;5035512;28;20030;-74
2023/06/15 02:32:53;;;;;;;8.55;5.00;;;18.00;57.90;;;;;;5027740;28;20041;-74
2023/06/15 02:35:20;;;;;;;10.07;4.88;;;17.90;58.20;;;;;;5027197;28;20394;-74
2023/06/15 02:37:46;;;;;;;9.82;5.30;;;17.90;58.20;;;;;;5023645;28;20128;-75
2023/06/15 02:40:12;;;;;;;9.63;4.82;;;17.80;58.40;;;;;;5018303;28;20018;-74
2023/06/15 02:42:38;;;;;;;7.70;4.97;;;17.70;58.70;;;;;;5018489;28;20029;-74
2023/06/15 02:45:07;;;;;;;8.55;5.13;;;17.70;59.00;;;;;;5026272;28;20048;-74
2023/06/15 02:47:37;;;;;;;9.05;5.20;;;17.70;59.10;;;;;;5009302;28;20245;-74
2023/06/15 02:50:06;;;;;;;7.55;4.80;;;17.70;59.30;;;;;;5015516;28;20257;-74
2023/06/15 02:52:32;;;;;;;9.40;4.85;;;17.70;59.20;;;;;;5024096;28;20029;-74
2023/06/15 02:55:01;;;;;;;7.00;4.40;;;17.80;59.20;;;;;;5026786;28;20029;-73
2023/06/15 02:57:27;;;;;;;9.20;5.38;;;17.80;59.10;;;;;;5028991;28;20029;-73
2023/06/15 02:59:53;;;;;;;8.40;4.97;;;17.80;59.00;;;;;;5025837;28;20033;-74
2023/06/15 03:02:20;;;;;;;9.57;5.18;;;17.80;59.20;;;;;;5022005;28;20536;-74
2023/06/15 03:04:50;;;;;;;8.80;4.82;;;17.80;59.20;;;;;;5021524;28;20084;-74
2023/06/15 03:07:20;;;;;;;9.75;5.65;;;17.70;59.30;;;;;;5020427;28;20142;-74
2023/06/15 03:09:50;;;;;;;8.68;5.70;;;17.60;59.40;;;;;;5026666;28;20028;-74
2023/06/15 03:12:17;;;;;;;10.10;5.63;;;17.60;59.60;;;;;;5047160;28;20033;-74
2023/06/15 03:14:50;;;;;;;7.82;5.05;;;17.60;59.80;;;;;;5049743;28;20438;-73
2023/06/15 03:17:16;;;;;;;7.75;5.40;;;17.50;60.00;;;;;;5037972;28;20131;-73
2023/06/15 03:19:43;;;;;;;8.40;5.60;;;17.50;59.90;;;;;;5029544;28;20084;-74
2023/06/15 03:22:10;;;;;;;9.80;5.93;;;17.50;59.80;;;;;;5033025;28;20065;-73
2023/06/15 03:24:36;;;;;;;9.68;5.50;;;17.50;60.00;;;;;;5022804;28;20025;-73
2023/06/15 03:27:03;;;;;;;12.38;6.75;;;17.50;60.20;;;;;;5026063;28;20545;-73
2023/06/15 03:29:31;;;;;;;9.48;6.10;;;17.50;60.10;;;;;;5023940;28;20025;-73
2023/06/15 03:31:57;;;;;;;9.70;6.55;;;17.40;60.00;;;;;;5022535;28;20095;-73
2023/06/15 03:34:25;;;;;;;8.23;5.85;;;17.30;60.40;;;;;;5022900;28;20026;-74
2023/06/15 03:36:51;;;;;;;10.48;5.63;;;17.20;60.70;;;;;;5028863;28;20485;-73
2023/06/15 03:39:18;;;;;;;8.82;5.90;;;17.30;60.90;;;;;;5019479;28;20325;-75
2023/06/15 03:41:44;;;;;;;8.90;6.13;;;17.20;60.70;;;;;;5027532;28;20423;-74
2023/06/15 03:44:10;;;;;;;8.10;6.05;;;17.30;60.80;;;;;;5028182;28;20139;-74
2023/06/15 03:46:36;;;;;;;9.00;5.70;;;17.30;60.70;;;;;;5031421;28;20025;-74
2023/06/15 03:49:02;;;;;;;11.32;6.53;;;17.40;60.80;;;;;;5038079;28;20454;-74
2023/06/15 03:51:27;;;;;;;8.52;5.82;;;17.40;60.60;;;;;;5037577;28;20041;-74
2023/06/15 03:53:54;;;;;;;9.10;6.18;;;17.40;60.60;;;;;;5031756;28;20021;-74
2023/06/15 03:56:19;;;;;;;12.18;6.70;;;17.30;60.80;;;;;;5038055;28;20047;-74
2023/06/15 03:58:45;;;;;;;10.63;6.10;;;17.40;60.70;;;;;;5032666;28;20021;-74
2023/06/15 04:01:14;;;;;;;8.38;6.07;;;17.30;61.00;;;;;;5025044;28;20042;-74
2023/06/15 04:03:40;;;;;;;9.90;5.90;;;17.50;60.80;;;;;;5016835;28;20045;-73
2023/06/15 04:06:06;;;;;;;11.10;6.28;;;17.50;60.70;;;;;;5033758;28;20044;-74
2023/06/15 04:08:32;;;;;;;8.63;5.82;;;17.50;60.70;;;;;;5032621;28;20024;-74
2023/06/15 04:10:59;;;;;;;9.27;6.28;;;17.50;60.80;;;;;;5026882;28;20141;-73
2023/06/15 04:13:25;;;;;;;11.73;6.38;;;17.60;60.50;;;;;;5022148;28;20037;-73
2023/06/15 04:15:52;;;;;;;10.07;6.45;;;17.60;60.40;;;;;;5020418;28;20024;-74
2023/06/15 04:18:20;;;;;;;9.25;6.82;;;17.60;60.30;;;;;;5026240;28;20555;-74
2023/06/15 04:20:46;;;;;;;10.35;6.78;;;17.50;60.70;;;;;;5018760;28;20037;-74
2023/06/15 04:23:12;;;;;;;11.35;6.18;;;17.40;60.70;;;;;;5027695;28;20079;-74
2023/06/15 04:25:40;;;;;;;11.15;6.70;;;17.40;60.70;;;;;;5024587;28;20412;-73
2023/06/15 04:28:10;;;;;;;10.52;5.95;;;17.50;61.00;;;;;;5023774;28;20536;-73
2023/06/15 04:30:40;;;;;;;10.57;6.15;;;17.60;61.10;;;;;;5021360;28;20032;-74
2023/06/15 04:33:07;;;;;;;12.10;7.03;;;17.70;60.80;;;;;;5022073;28;20162;-74
2023/06/15 04:35:34;;;;;;;12.38;6.50;;;17.80;60.50;;;;;;5024746;28;20029;-74
2023/06/15 04:38:05;;;;;;;10.90;6.35;;;17.70;60.40;;;;;;5023192;28;20037;-74
2023/06/15 04:40:31;;;;;;;9.32;6.85;;;17.80;60.40;;;;;;5026086;28;20555;-74
2023/06/15 04:43:02;;;;;;;9.57;6.15;;;17.90;60.00;;;;;;5021300;28;20076;-75
2023/06/15 04:45:31;;;;;;;9.52;5.93;;;17.70;60.40;;;;;;5030427;28;20473;-75
2023/06/15 04:47:58;;;;;;;10.63;6.90;;;17.80;60.50;;;;;;5026210;28;20529;-75
2023/06/15 04:50:24;;;;;;;8.95;6.00;;;17.90;60.50;;;;;;5029584;28;20017;-75
2023/06/15 04:52:50;;;;;;;11.02;5.93;;;18.00;60.60;;;;;;5030857;28;20037;-74
2023/06/15 04:55:16;;;;;;;8.45;6.15;;;18.10;60.40;;;;;;5024748;28;20413;-75
2023/06/15 04:57:42;;;;;;;10.55;6.68;;;18.10;60.20;;;;;;5019916;28;20249;-75
2023/06/15 05:00:09;;;;;;;10.75;6.72;;;18.10;60.00;;;;;;5018339;28;20025;-74
2023/06/15 05:02:35;;;;;;;12.23;7.47;;;18.10;60.20;;;;;;5032171;28;20041;-74
2023/06/15 05:05:01;;;;;;;10.43;6.93;;;18.20;60.20;;;;;;5033142;28;20404;-74
2023/06/15 05:07:27;;;;;;;9.40;6.10;;;18.50;60.00;;;;;;5032057;28;20063;-74
2023/06/15 05:09:53;;;;;;;9.35;6.47;;;19.60;57.90;;;;;;5028718;28;20057;-74
2023/06/15 05:12:19;;;;;;;8.60;5.78;;;21.50;52.90;;;;;;5021581;28;20092;-74
2023/06/15 05:14:45;;;;;;;13.48;7.30;;;23.10;48.50;;;;;;5028889;28;20049;-74
2023/06/15 05:17:10;;;;;;;11.82;6.07;;;24.40;44.60;;;;;;5025814;28;20045;-75
2023/06/15 05:19:36;;;;;;;9.20;5.60;;;25.10;43.00;;;;;;5007288;28;20065;-73
2023/06/15 05:22:02;;;;;;;7.97;5.05;;;26.00;41.80;;;;;;5027960;28;20180;-73
2023/06/15 05:24:28;;;;;;;10.35;6.25;;;26.50;40.60;;;;;;5037878;28;20108;-74
2023/06/15 05:26:54;;;;;;;10.48;6.88;;;27.10;39.40;;;;;;5025810;28;20125;-74
2023/06/15 05:29:20;;;;;;;11.30;6.57;;;26.90;38.90;;;;;;5018789;28;20018;-73
2023/06/15 05:31:46;;;;;;;12.98;7.03;;;26.80;39.40;;;;;;5034862;28;20473;-74
2023/06/15 05:34:12;;;;;;;12.20;7.15;;;26.60;40.40;;;;;;5044007;28;20104;-74
2023/06/15 05:36:37;;;;;;;11.85;7.13;;;27.10;38.90;;;;;;5048474;28;20128;-74
2023/06/15 05:39:03;;;;;;;15.35;6.80;;;27.10;38.70;;;;;;5055240;28;20043;-74
2023/06/15 05:41:30;;;;;;;14.70;7.15;;;27.20;38.70;;;;;;5044129;28;20256;-74
2023/06/15 05:43:55;;;;;;;10.68;7.18;;;27.40;38.60;;;;;;5046485;28;20081;-75
2023/06/15 05:46:21;;;;;;;11.45;7.25;;;27.30;38.30;;;;;;5038380;28;20159;-74
2023/06/15 05:48:47;;;;;;;13.55;7.22;;;27.50;38.30;;;;;;5046720;28;20025;-74
2023/06/15 05:51:12;;;;;;;10.40;7.07;;;26.90;39.50;;;;;;5044461;28;20516;-74
2023/06/15 05:53:38;;;;;;;9.00;6.72;;;26.80;39.50;;;;;;5035192;28;20350;-74
2023/06/15 05:56:04;;;;;;;13.40;7.97;;;25.90;41.70;;;;;;5033859;28;20028;-74
2023/06/15 05:58:30;;;;;;;10.57;7.47;;;23.60;46.00;;;;;;5037313;28;20021;-74
2023/06/15 06:00:55;;;;;;;12.45;8.18;;;22.70;48.80;;;;;;5047551;28;20174;-74
2023/06/15 06:03:21;;;;;;;15.18;8.10;;;22.40;49.90;;;;;;5048915;28;20128;-74
2023/06/15 06:05:47;;;;;;;9.68;6.95;;;21.70;51.40;;;;;;5056594;28;20436;-74
2023/06/15 06:08:12;;;;;;;10.18;7.30;;;21.60;52.70;;;;;;5054660;28;20020;-74
2023/06/15 06:10:38;;;;;;;15.05;8.80;;;21.60;53.20;;;;;;5056422;28;20021;-74
2023/06/15 06:13:04;;;;;;;11.65;7.80;;;21.80;52.10;;;;;;5054238;28;20063;-74
2023/06/15 06:15:30;;;;;;;11.88;7.22;;;21.80;52.00;;;;;;5050187;28;20521;-74
2023/06/15 06:17:55;;;;;;;10.63;7.43;;;22.00;51.20;;;;;;5051824;28;20043;-74
2023/06/15 06:20:21;;;;;;;10.23;7.68;;;22.00;50.50;;;;;;5048897;28;20338;-74
2023/06/15 06:22:46;;;;;;;12.75;8.30;;;22.00;49.90;;;;;;5036014;28;20105;-74
2023/06/15 06:25:12;;;;;;;10.13;7.30;;;21.80;50.70;;;;;;5044322;28;20345;-74
2023/06/15 06:27:38;;;;;;;12.93;6.63;;;21.90;50.70;;;;;;5029945;28;20036;-74
2023/06/15 06:30:04;;;;;;;11.23;6.95;;;22.10;50.90;;;;;;5044390;28;20103;-74
2023/06/15 06:32:30;;;;;;;10.45;7.07;;;22.10;50.30;;;;;;5038617;28;20578;-73
2023/06/15 06:34:56;;;;;;;15.75;7.00;;;22.40;49.50;;;;;;5049989;28;20025;-74
2023/06/15 06:37:22;;;;;;;10.50;7.55;;;22.60;49.10;;;;;;5043546;28;20082;-76
2023/06/15 06:39:48;;;;;;;12.20;7.70;;;22.80;48.50;;;;;;5055737;28;20032;-75
2023/06/15 06:42:13;;;;;;;11.82;6.68;;;22.70;49.20;;;;;;5043245;28;20327;-75
2023/06/15 06:44:40;;;;;;;9.45;6.95;;;22.70;48.80;;;;;;5049491;28;20063;-75
2023/06/15 06:47:06;;;;;;;11.80;7.72;;;23.00;48.00;;;;;;5046651;28;20045;-75
2023/06/15 06:49:31;;;;;;;11.40;6.88;;;23.10;47.90;;;;;;5059244;28;20020;-74
2023/06/15 06:51:57;;;;;;;10.45;6.90;;;23.10;47.80;;;;;;5052952;28;20389;-74
2023/06/15 06:54:23;;;;;;;11.05;6.85;;;23.30;47.60;;;;;;5045484;28;20147;-74
2023/06/15 06:56:48;;;;;;;15.25;7.45;;;23.30;47.40;;;;;;5049989;28;20032;-73
2023/06/15 06:59:14;;;;;;;11.40;6.78;;;23.10;47.10;;;;;;5044772;28;20051;-74
2023/06/15 07:01:39;;;;;;;8.30;6.15;;;23.10;47.20;;;;;;5057763;28;20080;-73
2023/06/15 07:04:05;;;;;;;9.25;5.95;;;23.50;47.70;;;;;;5061210;28;20475;-72
2023/06/15 07:06:32;;;;;;;13.85;6.30;;;23.70;46.80;;;;;;5048070;28;20044;-74
2023/06/15 07:08:58;;;;;;;10.68;6.88;;;23.90;46.80;;;;;;5046778;28;20035;-75
2023/06/15 07:11:23;;;;;;;11.07;6.05;;;23.70;45.80;;;;;;5038949;28;20049;-75
2023/06/15 07:13:49;;;;;;;9.77;6.35;;;23.90;46.00;;;;;;5045320;28;20086;-73
2023/06/15 07:16:15;;;;;;;11.18;6.47;;;24.00;46.00;;;;;;5035402;28;20418;-73
2023/06/15 07:18:41;;;;;;;13.80;5.60;;;24.10;45.50;;;;;;5048544;28;20033;-73
2023/06/15 07:21:06;;;;;;;12.35;5.70;;;24.20;44.90;;;;;;5043631;28;20793;-73
2023/06/15 07:23:32;;;;;;;8.65;6.13;;;24.10;45.80;;;;;;5048791;28;20029;-73
2023/06/15 07:25:58;;;;;;;8.85;5.10;;;24.20;44.80;;;;;;5045501;28;20032;-73
2023/06/15 07:28:23;;;;;;;10.30;5.90;;;24.30;44.80;;;;;;5049050;28;20126;-73
2023/06/15 07:30:49;;;;;;;14.13;6.25;;;24.50;44.80;;;;;;5054540;28;20036;-73
2023/06/15 07:33:16;;;;;;;11.13;5.60;;;24.10;45.50;;;;;;5058318;28;20034;-73
2023/06/15 07:35:43;;;;;;;10.30;6.15;;;24.20;45.60;;;;;;5053714;28;20035;-73
2023/06/15 07:38:08;;;;;;;10.93;5.43;;;24.50;45.30;;;;;;5055274;28;20032;-73
2023/06/15 07:40:34;;;;;;;10.18;5.88;;;24.60;45.40;;;;;;5042474;28;20383;-73
2023/06/15 07:43:00;;;;;;;11.35;6.40;;;24.80;44.20;;;;;;5052188;28;20420;-73
2023/06/15 07:45:26;;;;;;;9.32;4.72;;;24.70;44.30;;;;;;5057645;28;20037;-73
2023/06/15 07:47:52;;;;;;;7.57;5.38;;;24.60;44.30;;;;;;5059552;28;20435;-73
2023/06/15 07:50:18;;;;;;;7.85;5.13;;;25.00;44.30;;;;;;5062347;28;20032;-73
2023/06/15 07:52:43;;;;;;;9.25;5.35;;;25.00;44.20;;;;;;5038946;28;20021;-73
2023/06/15 07:55:09;;;;;;;10.32;5.22;;;25.30;44.00;;;;;;5038154;28;20033;-73
2023/06/15 07:57:35;;;;;;;7.10;5.38;;;25.60;43.60;;;;;;5049004;28;20095;-73
2023/06/15 08:00:05;;;;;;;9.38;5.32;;;25.50;43.00;;;;;;5048374;28;20028;-73
2023/06/15 08:02:30;;;;;;;10.63;5.50;;;25.00;43.00;;;;;;5042980;28;20394;-73
2023/06/15 08:04:56;;;;;;;10.02;5.10;;;25.30;43.10;;;;;;5044722;28;20052;-72
2023/06/15 08:07:22;;;;;;;7.72;4.32;;;25.30;43.40;;;;;;5057344;28;20056;-73
2023/06/15 08:09:47;;;;;;;10.20;5.32;;;25.60;42.60;;;;;;5052732;28;20089;-74
2023/06/15 08:12:13;;;;;;;7.22;4.35;;;26.00;41.20;;;;;;5052843;28;20500;-73
2023/06/15 08:14:39;;;;;;;7.82;4.60;;;26.00;41.70;;;;;;5037904;28;20103;-74
2023/06/15 08:17:05;;;;;;;6.85;4.20;;;26.00;41.70;;;;;;5045247;28;20036;-74
2023/06/15 08:19:30;;;;;;;8.80;4.38;;;26.10;41.30;;;;;;5047712;28;20033;-74
2023/06/15 08:21:56;;;;;;;9.23;4.00;;;26.30;41.60;;;;;;5048982;28;20108;-74
2023/06/15 08:24:22;;;;;;;7.07;3.85;;;26.50;39.60;;;;;;5047814;28;20029;-75
2023/06/15 08:26:51;;;;;;;6.20;3.33;;;26.70;38.90;;;;;;5051493;28;20243;-74
2023/06/15 08:29:16;;;;;;;8.68;3.85;;;26.90;37.90;;;;;;5045764;28;20044;-74
2023/06/15 08:31:42;;;;;;;8.43;3.70;;;27.00;38.30;;;;;;5044415;28;20028;-76
2023/06/15 08:34:08;;;;;;;8.82;4.53;;;26.50;39.20;;;;;;5046759;28;20108;-76
2023/06/15 08:36:34;;;;;;;6.80;3.72;;;26.00;40.30;;;;;;5037236;28;20049;-76
2023/06/15 08:39:00;;;;;;;8.05;3.78;;;25.80;40.90;;;;;;5050108;28;20046;-74
2023/06/15 08:41:27;;;;;;;9.32;3.47;;;26.00;41.50;;;;;;5046107;28;20034;-74
2023/06/15 08:43:57;;;;;;;7.03;3.10;;;26.60;40.00;;;;;;5051313;28;20070;-74
2023/06/15 08:46:26;;;;;;;6.18;3.22;;;26.70;38.90;;;;;;5048073;28;20037;-74
2023/06/15 08:48:53;;;;;;;7.57;3.45;;;27.10;37.60;;;;;;5049433;28;20025;-74
2023/06/15 08:51:22;;;;;;;6.18;3.33;;;27.20;37.80;;;;;;5048790;28;20029;-75
2023/06/15 08:53:48;;;;;;;7.38;3.38;;;27.30;37.50;;;;;;5041416;28;20184;-74
2023/06/15 08:56:14;;;;;;;8.27;3.53;;;27.50;37.80;;;;;;5041986;28;20115;-75
2023/06/15 08:58:49;;;;;;;8.50;3.80;;;27.50;36.70;;;;;;5050414;28;20737;-75
2023/06/15 09:01:19;;;;;;;6.55;3.25;;;27.70;36.40;;;;;;5045912;28;20143;-74
2023/06/15 09:03:45;;;;;;;6.22;2.85;;;27.30;36.60;;;;;;5041735;28;20075;-75
2023/06/15 09:06:11;;;;;;;8.85;4.07;;;27.50;35.90;;;;;;5054572;28;20028;-75
2023/06/15 09:08:37;;;;;;;6.75;3.38;;;27.60;35.70;;;;;;5053449;28;20025;-74
2023/06/15 09:11:07;;;;;;;6.53;3.80;;;27.90;34.90;;;;;;5043986;28;20053;-73
2023/06/15 09:13:33;;;;;;;7.60;3.13;;;27.80;35.60;;;;;;5054239;28;20608;-73
2023/06/15 09:16:00;;;;;;;6.05;2.95;;;27.90;35.30;;;;;;5052070;28;20058;-76
2023/06/15 09:18:26;;;;;;;6.15;3.15;;;28.10;35.30;;;;;;5047116;28;20033;-74
2023/06/15 09:20:56;;;;;;;8.65;3.25;;;28.20;34.00;;;;;;5042559;28;20032;-74
2023/06/15 09:23:22;;;;;;;6.40;3.42;;;27.40;34.70;;;;;;5045599;28;20025;-74
2023/06/15 09:25:52;;;;;;;9.50;3.10;;;27.00;36.40;;;;;;5040681;28;20091;-75
2023/06/15 09:28:22;;;;;;;6.13;3.33;;;27.40;35.30;;;;;;5038810;28;20581;-73
2023/06/15 09:30:55;;;;;;;5.88;2.83;;;27.50;35.90;;;;;;5042469;28;20108;-74
2023/06/15 09:33:22;;;;;;;4.38;3.03;;;28.00;34.30;;;;;;5046019;28;20037;-72
2023/06/15 09:36:03;;;;;;;7.18;3.05;;;28.30;33.90;;;;;;5050136;28;20033;-76
2023/06/15 09:38:32;;;;;;;6.53;3.22;;;28.60;33.80;;;;;;5052627;28;20029;-74
2023/06/15 09:41:05;;;;;;;6.93;3.00;;;28.50;33.60;;;;;;5055891;28;20028;-75
2023/06/15 09:43:34;;;;;;;;;;;28.80;33.30;;;;;;5040053;28;20037;-74
2023/06/15 09:46:01;;;;;;;4.97;3.10;;;29.00;32.70;;;;;;5044139;28;19975;-75
2023/06/15 09:48:30;;;;;;;6.60;3.20;;;29.10;32.50;;;;;;5056112;28;20445;-75
2023/06/15 09:51:01;;;;;;;5.53;3.03;;;29.20;31.20;;;;;;5049677;28;20028;-75
2023/06/15 09:53:30;;;;;;;7.63;3.20;;;29.20;31.00;;;;;;5047428;28;20048;-76
2023/06/15 09:55:57;;;;;;;8.32;3.38;;;29.10;31.70;;;;;;5037016;28;20037;-79
2023/06/15 09:58:23;;;;;;;6.18;3.83;;;28.80;31.60;;;;;;5048666;28;20033;-79
2023/06/15 10:00:49;;;;;;;9.15;4.07;;;28.20;32.20;;;;;;5043910;28;20025;-78
2023/06/15 10:03:21;;;;;;;8.30;3.65;;;28.00;33.50;;;;;;5047241;28;20046;-76
2023/06/15 10:05:53;;;;;;;7.57;3.22;;;27.90;33.30;;;;;;5050056;28;20032;-76
2023/06/15 10:08:20;;;;;;;6.78;3.05;;;28.30;32.80;;;;;;5047038;28;20094;-77
2023/06/15 10:10:46;;;;;;;8.38;3.28;;;28.60;32.10;;;;;;5041273;28;20029;-78
2023/06/15 10:13:23;;;;;;;6.78;3.05;;;28.80;31.60;;;;;;5015872;28;20064;-77
2023/06/15 10:15:52;;;;;;;7.22;3.10;;;28.40;32.00;;;;;;5015672;28;20033;-76
2023/06/15 10:18:20;;;;;;;6.18;2.90;;;28.50;33.00;;;;;;5015691;28;20025;-77
2023/06/15 10:20:52;;;;;;;9.75;2.90;;;28.90;31.70;;;;;;5020337;28;20445;-77
2023/06/15 10:23:23;;;;;;;6.07;3.22;;;28.90;33.00;;;;;;5020433;28;20090;-78
2023/06/15 10:25:51;;;;;;;7.10;3.22;;;29.10;32.00;;;;;;5014821;28;20037;-76
2023/06/15 10:28:23;;;;;;;6.65;3.17;;;29.40;30.80;;;;;;5020511;28;20036;-77
2023/06/15 10:31:12;;;;;;;8.90;3.22;;;29.30;30.80;;;;;;5007795;28;20809;-77
2023/06/15 10:33:52;;;;;;;7.97;2.90;;;29.70;30.40;;;;;;5009445;28;20045;-76
2023/06/15 10:36:27;;;;;;;5.93;3.03;;;29.90;29.60;;;;;;5008571;28;20072;-75
2023/06/15 10:39:05;;;;;;;5.38;3.10;;;29.40;29.60;;;;;;5006968;28;20490;-77
2023/06/15 10:41:31;;;;;;;5.75;3.60;;;28.90;30.40;;;;;;5010227;28;20513;-77
2023/06/15 10:44:04;;;;;;;5.80;3.20;;;28.10;32.30;;;;;;5010283;28;20060;-76
2023/06/15 10:46:32;;;;;;;4.67;3.00;;;28.00;32.40;;;;;;5007677;28;20033;-77
2023/06/15 10:49:09;;;;;;;4.53;2.95;;;27.80;31.80;;;;;;5005611;28;20144;-76
2023/06/15 10:51:39;;;;;;;7.45;3.10;;;28.30;32.40;;;;;;5011862;28;20258;-78
2023/06/15 10:54:21;;;;;;;6.80;2.70;;;28.80;31.70;;;;;;5008673;28;20036;-75
2023/06/15 10:56:50;;;;;;;6.60;2.63;;;29.10;30.50;;;;;;5007898;28;20048;-76
2023/06/15 10:59:35;;;;;;;4.68;2.53;;;29.20;31.60;;;;;;5001234;28;20029;-76
2023/06/15 11:02:01;;;;;;;5.90;3.10;;;29.60;30.40;;;;;;5025430;28;20043;-77
2023/06/15 11:04:33;;;;;;;4.93;2.85;;;29.90;30.70;;;;;;5020850;28;20386;-77
2023/06/15 11:07:02;;;;;;;7.15;3.22;;;30.20;30.20;;;;;;5014661;28;20124;-77
2023/06/15 11:09:35;;;;;;;4.45;2.95;;;30.40;30.30;;;;;;5018073;28;20022;-77
2023/06/15 11:12:01;;;;;;;5.95;2.97;;;29.90;29.50;;;;;;5026345;28;20559;-78
2023/06/15 11:14:26;;;;;;;5.55;3.08;;;29.30;29.40;;;;;;5025843;28;20054;-76
2023/06/15 11:17:06;;;;;;;9.52;3.10;;;29.60;29.90;;;;;;5030155;28;20056;-79
2023/06/15 11:19:40;;;;;;;4.85;2.65;;;29.90;28.80;;;;;;5027680;28;20033;-78
2023/06/15 11:22:07;;;;;;;6.68;3.38;;;30.10;28.70;;;;;;5017734;28;20068;-78
2023/06/15 11:24:38;;;;;;;6.50;2.92;;;30.10;29.10;;;;;;5025798;28;20072;-79
2023/06/15 11:27:05;;;;;;;7.03;3.42;;;30.50;29.50;;;;;;5018854;28;20117;-79
2023/06/15 11:29:34;;;;;;;7.82;3.10;;;30.20;28.40;;;;;;5019238;28;20053;-77
2023/06/15 11:32:04;;;;;;;6.00;3.22;;;29.40;29.90;;;;;;5013886;28;20045;-78
2023/06/15 11:34:35;;;;;;;7.63;3.53;;;29.70;30.50;;;;;;5017402;28;20029;-76
2023/06/15 11:37:01;;;;;;;6.18;3.33;;;30.00;29.30;;;;;;5027997;28;20033;-78
2023/06/15 11:39:28;;;;;;;7.03;3.10;;;29.40;30.40;;;;;;5045055;28;20571;-78
2023/06/15 11:41:56;;;;;;;7.60;3.17;;;29.40;31.20;;;;;;5047730;28;20032;-78
2023/06/15 11:44:27;;;;;;;4.70;3.00;;;29.60;29.60;;;;;;5048392;28;20035;-78
2023/06/15 11:47:00;;;;;;;9.15;3.42;;;30.10;29.40;;;;;;5032132;28;20706;-78
2023/06/15 11:49:33;;;;;;;5.82;3.17;;;30.40;30.10;;;;;;5028980;28;20048;-78
2023/06/15 11:51:58;;;;;;;6.20;3.28;;;30.70;29.80;;;;;;5028912;28;20026;-78
2023/06/15 11:54:25;;;;;;;6.22;3.33;;;30.70;29.00;;;;;;5028569;28;20436;-78
2023/06/15 11:56:51;;;;;;;6.10;3.38;;;30.80;28.50;;;;;;5030633;28;20060;-78
2023/06/15 11:59:19;;;;;;;9.38;3.47;;;30.90;29.50;;;;;;5018251;28;20024;-78
2023/06/15 12:01:45;;;;;;;7.55;3.15;;;30.90;28.90;;;;;;5023423;28;20033;-77
2023/06/15 12:04:15;;;;;;;7.78;3.47;;;31.00;29.30;;;;;;5025328;28;20462;-77
2023/06/15 12:06:41;;;;;;;7.50;3.50;;;30.70;29.70;;;;;;5025790;28;20037;-78
2023/06/15 12:09:08;;;;;;;7.35;3.17;;;30.80;29.60;;;;;;5027090;28;21060;-78
2023/06/15 12:11:34;;;;;;;5.68;3.22;;;30.90;29.70;;;;;;5025878;28;20037;-78
2023/06/15 12:14:10;;;;;;;8.23;3.53;;;30.90;29.80;;;;;;5030565;28;20068;-78
2023/06/15 12:16:37;;;;;;;6.13;3.40;;;30.70;30.00;;;;;;5024959;28;20038;-79
2023/06/15 12:19:07;;;;;;;5.97;3.65;;;30.10;29.30;;;;;;5026802;28;20036;-78
2023/06/15 12:21:37;;;;;;;6.97;3.38;;;29.70;29.20;;;;;;5035085;28;20133;-77
2023/06/15 12:24:15;;;;;;;7.38;3.42;;;29.50;29.80;;;;;;5031374;28;20120;-79
2023/06/15 12:26:46;;;;;;;6.93;3.63;;;29.50;29.00;;;;;;5028257;28;20050;-78
2023/06/15 12:29:14;;;;;;;8.63;3.72;;;29.60;29.90;;;;;;5029476;28;20056;-78
2023/06/15 12:31:43;;;;;;;8.65;3.50;;;29.70;29.30;;;;;;5033485;28;20088;-77
2023/06/15 12:34:09;;;;;;;7.38;3.63;;;29.50;29.90;;;;;;5030538;28;20021;-76
2023/06/15 12:36:39;;;;;;;5.57;3.40;;;29.80;30.00;;;;;;5025228;28;20044;-79
2023/06/15 12:39:10;;;;;;;5.63;3.28;;;30.20;30.10;;;;;;5031917;28;20047;-80
2023/06/15 12:41:42;;;;;;;5.70;3.35;;;29.80;29.60;;;;;;5022684;28;20043;-78
2023/06/15 12:44:09;;;;;;;9.98;3.60;;;29.00;30.50;;;;;;5030311;28;20595;-79
2023/06/15 12:46:38;;;;;;;7.65;4.30;;;28.80;31.20;;;;;;5024068;28;20033;-79